Time;durP1;ratioP1;P1;durP2;ratioP2;P2;SDS_P1;SDS_P2;PMS_P1;PMS_P2;Temp;Humidity;BMP_temperature;BMP_pressure;BME280_temperature;BME280_humidity;BME280_pressure;Samples;Min_cycle;Max_cycle;Signal;HPM_P1;HPM_P2
2024/02/14 00:01:02;;;;;;;;;;;;;;;5.24;100.00;99987.34;5035321;28;19966;-83
2024/02/14 00:03:27;;;;;;;;;;;;;;;5.27;100.00;99995.19;5035026;28;20447;-82
2024/02/14 00:05:53;;;;;;;;;;;;;;;5.26;100.00;99999.59;5035049;28;19929;-83
2024/02/14 00:08:18;;;;;;;;;;;;;;;5.31;100.00;99998.63;5035118;28;19940;-85
2024/02/14 00:10:44;;;;;;;;;;;;;;;5.22;100.00;99997.03;5034934;28;19917;-82
2024/02/14 00:13:10;;;;;;;;;;;;;;;5.25;100.00;99991.72;5023821;28;19917;-83
2024/02/14 00:15:36;;;;;;;;;;;;;;;5.32;100.00;99981.97;5025132;28;20386;-83
2024/02/14 00:18:01;;;;;;;;;;;;;;;5.26;100.00;99978.56;5034875;28;19921;-83
2024/02/14 00:20:26;;;;;;;;;;;;;;;5.23;100.00;99977.72;5034845;28;19921;-83
2024/02/14 00:22:52;;;;;;;;;;;;;;;5.35;100.00;99979.28;5034693;28;20054;-84
2024/02/14 00:25:17;;;;;;;;;;;;;;;5.31;100.00;99986.34;5034657;28;19956;-83
2024/02/14 00:27:42;;;;;;;;;;;;;;;5.25;100.00;99982.06;5033254;28;19999;-83
2024/02/14 00:30:10;;;;;;;;;;;;;;;5.27;100.00;99980.28;5034754;28;19928;-84
2024/02/14 00:32:35;;;;;;;;;;;;;;;5.31;100.00;99978.44;5034562;28;19921;-84
2024/02/14 00:35:00;;;;;;;;;;;;;;;5.31;100.00;99981.09;5024819;28;19924;-83
2024/02/14 00:37:26;;;;;;;;;;;;;;;5.33;100.00;99978.44;5034500;28;19968;-84
2024/02/14 00:39:51;;;;;;;;;;;;;;;5.25;100.00;99976.81;5034101;28;20291;-84
2024/02/14 00:42:17;;;;;;;;;;;;;;;5.34;100.00;99965.25;5033173;28;19983;-84
2024/02/14 00:44:42;;;;;;;;;;;;;;;5.37;100.00;99959.09;5034361;28;19924;-85
2024/02/14 00:47:07;;;;;;;;;;;;;;;5.29;100.00;99956.59;5033873;28;20463;-83
2024/02/14 00:49:36;;;;;;;;;;;;;;;5.32;100.00;99960.94;5033985;28;19965;-85
2024/02/14 00:52:01;;;;;;;;;;;;;;;5.32;100.00;99960.94;5034164;28;19922;-84
2024/02/14 00:54:26;;;;;;;;;;;;;;;5.32;100.00;99955.69;5033624;28;19924;-83
2024/02/14 00:56:51;;;;;;;;;;;;;;;5.34;100.00;99944.25;5032260;28;19971;-84
2024/02/14 00:59:17;;;;;;;;;;;;;;;5.31;100.00;99939.03;5033593;28;19928;-84
2024/02/14 01:01:42;;;;;;;;;;;;;;;5.30;100.00;99944.31;5033500;28;20380;-84
2024/02/14 01:04:10;;;;;;;;;;;;;;;5.32;100.00;99939.94;5033538;28;20387;-84
2024/02/14 01:06:38;;;;;;;;;;;;;;;5.36;100.00;99944.22;5033415;28;20403;-84
2024/02/14 01:09:03;;;;;;;;;;;;;;;5.40;100.00;99938.03;5033358;28;20020;-84
2024/02/14 01:11:29;;;;;;;;;;;;;;;5.40;100.00;99932.75;5032159;28;20432;-84
2024/02/14 01:13:54;;;;;;;;;;;;;;;5.35;100.00;99930.22;5023401;28;19925;-84
2024/02/14 01:16:19;;;;;;;;;;;;;;;5.40;100.00;99938.88;5023226;28;19917;-86
2024/02/14 01:18:44;;;;;;;;;;;;;;;5.38;100.00;99940.69;5033177;28;19921;-83
2024/02/14 01:21:10;;;;;;;;;;;;;;;5.39;100.00;99933.66;5023291;28;20047;-84
2024/02/14 01:23:35;;;;;;;;;;;;;;;5.43;100.00;99937.97;5033101;28;19917;-83
2024/02/14 01:26:01;;;;;;;;;;;;;;;5.43;100.00;99940.59;5033114;28;20300;-84
2024/02/14 01:28:27;;;;;;;;;;;;;;;5.38;100.00;99938.03;5031779;28;19922;-84
2024/02/14 01:30:52;;;;;;;;;;;;;;;5.47;100.00;99944.88;5033004;28;19928;-83
2024/02/14 01:33:17;;;;;;;;;;;;;;;5.43;100.00;99943.22;5027185;28;20311;-84
2024/02/14 01:35:42;;;;;;;;;;;;;;;5.40;100.00;99943.28;5032877;28;19917;-84
2024/02/14 01:38:08;;;;;;;;;;;;;;;5.45;100.00;99936.16;5032868;28;19917;-85
2024/02/14 01:40:35;;;;;;;;;;;;;;;5.43;100.00;99936.19;5022788;28;19924;-83
2024/02/14 01:43:01;;;;;;;;;;;;;;;5.43;100.00;99943.22;5030970;28;19917;-83
2024/02/14 01:45:27;;;;;;;;;;;;;;;5.41;100.00;99939.75;5022961;28;19917;-84
2024/02/14 01:47:53;;;;;;;;;;;;;;;5.45;100.00;99929.13;5022604;28;19917;-83
2024/02/14 01:50:25;;;;;;;;;;;;;;;5.41;100.00;99931.88;5032562;28;19917;-84
2024/02/14 01:52:51;;;;;;;;;;;;;;;5.47;100.00;99923.84;5031991;28;20369;-84
2024/02/14 01:55:16;;;;;;;;;;;;;;;5.45;100.00;99920.38;5011288;28;19924;-83
2024/02/14 01:57:42;;;;;;;;;;;;;;;5.48;100.00;99919.47;5020872;28;19921;-84
2024/02/14 02:00:17;;;;;;;;;;;;;;;5.44;100.00;99916.03;5021553;28;19921;-84
2024/02/14 02:02:43;;;;;;;;;;;;;;;5.52;100.00;99922.00;5021593;28;20280;-84
2024/02/14 02:05:09;;;;;;;;;;;;;;;5.59;100.00;99920.13;5032531;28;19917;-84
2024/02/14 02:07:34;;;;;;;;;;;;;;;5.51;100.00;99915.03;5022516;28;19982;-83
2024/02/14 02:09:59;;;;;;;;;;;;;;;5.48;100.00;99917.69;5032196;28;19917;-83
2024/02/14 06:13:36;;;;;;;;;;;;;;;5.74;100.00;99974.16;5758488;23;19956;-86
2024/02/14 06:16:02;;;;;;;;;;;;;;;5.70;100.00;99977.75;5031710;28;20015;-86
2024/02/14 06:18:27;;;;;;;;;;;;;;;5.61;100.00;99982.28;5014844;28;20047;-85
2024/02/14 06:20:53;;;;;;;;;;;;;;;5.70;100.00;99977.75;5032582;28;19921;-85
2024/02/14 06:23:20;;;;;;;;;;;;;;;5.70;100.00;99980.38;5031481;28;21393;-85
2024/02/14 06:25:45;;;;;;;;;;;;;;;5.71;100.00;99984.72;5032221;28;19962;-86
2024/02/14 06:28:10;;;;;;;;;;;;;;;5.66;100.00;99986.59;5031625;28;19921;-85
2024/02/14 06:30:36;;;;;;;;;;;;;;;5.62;100.00;99994.53;5032333;28;19917;-85
2024/02/14 06:33:02;;;;;;;;;;;;;;;5.67;100.00;99994.44;5032662;28;20740;-84
2024/02/14 06:35:28;;;;;;;;;;;;;;;5.70;100.00;99996.16;5032224;28;19917;-85
2024/02/14 06:37:53;;;;;;;;;;;;;;;5.62;100.00;99997.16;5032360;28;19921;-84
2024/02/14 06:40:19;;;;;;;;;;;;;;;5.64;100.00;100000.63;5032394;28;19917;-85
2024/02/14 06:42:44;;;;;;;;;;;;;;;5.74;100.00;100008.34;5030831;28;19921;-88
2024/02/14 06:45:09;;;;;;;;;;;;;;;5.71;100.00;100013.66;5032233;28;19921;-85
2024/02/14 06:47:34;;;;;;;;;;;;;;;5.66;100.00;100018.13;5032257;28;19925;-85
2024/02/14 06:50:00;;;;;;;;;;;;;;;5.72;100.00;100018.03;5032258;28;20379;-87
2024/02/14 06:52:25;;;;;;;;;;;;;;;5.70;100.00;100035.59;5032170;28;20042;-85
2024/02/14 06:54:51;;;;;;;;;;;;;;;5.72;100.00;100032.03;5032119;28;20364;-86
2024/02/14 06:57:16;;;;;;;;;;;;;;;5.66;100.00;100033.91;5031418;28;19960;-86
2024/02/14 06:59:42;;;;;;;;;;;;;;;5.73;100.00;100043.44;5031331;28;19925;-85
2024/02/14 07:02:07;;;;;;;;;;;;;;;5.69;100.00;100039.97;5031916;28;20280;-85
2024/02/14 07:04:32;;;;;;;;;;;;;;;5.69;100.00;100042.59;5032122;28;20038;-83
2024/02/14 07:06:58;;;;;;;;;;;;;;;5.71;100.00;100037.31;5032107;28;19921;-84
2024/02/14 07:09:25;;;;;;;;;;;;;;;5.72;100.00;100036.44;5032027;28;19921;-86
2024/02/14 07:11:50;;;;;;;;;;;;;;;5.66;100.00;100040.03;5031766;28;19921;-84
2024/02/14 07:14:16;;;;;;;;;;;;;;;5.72;100.00;100039.91;5030427;28;19928;-85
2024/02/14 07:16:41;;;;;;;;;;;;;;;5.71;100.00;100034.69;5032126;28;19928;-85
2024/02/14 07:19:06;;;;;;;;;;;;;;;5.72;100.00;100037.28;5031812;28;20028;-84
2024/02/14 07:21:33;;;;;;;;;;;;;;;5.66;100.00;100039.16;5031864;28;19921;-84
2024/02/14 07:23:58;;;;;;;;;;;;;;;5.73;100.00;100046.06;5031722;28;19921;-84
2024/02/14 07:26:23;;;;;;;;;;;;;;;5.68;100.00;100051.41;5031936;28;20387;-83
2024/02/14 07:28:48;;;;;;;;;;;;;;;5.66;100.00;100049.69;5030381;28;19921;-84
2024/02/14 07:31:14;;;;;;;;;;;;;;;5.69;100.00;100054.88;5032075;28;19921;-85
2024/02/14 07:33:39;;;;;;;;;;;;;;;5.70;100.00;100052.22;5031677;28;19975;-87
2024/02/14 07:36:04;;;;;;;;;;;;;;;5.72;100.00;100060.94;5031606;28;20052;-84
2024/02/14 07:38:29;;;;;;;;;;;;;;;5.73;100.00;100051.31;5031517;28;19937;-86
2024/02/14 07:40:55;;;;;;;;;;;;;;;5.76;100.00;100056.50;5031882;28;19948;-84
2024/02/14 07:43:20;;;;;;;;;;;;;;;5.73;100.00;100048.69;5030422;28;19979;-83
2024/02/14 07:45:45;;;;;;;;;;;;;;;5.69;100.00;100055.75;5031628;28;20373;-83
2024/02/14 07:48:10;;;;;;;;;;;;;;;5.66;100.00;100057.56;5031589;28;19921;-83
2024/02/14 07:50:37;;;;;;;;;;;;;;;5.70;100.00;100056.63;5031658;28;20424;-81
2024/02/14 07:53:02;;;;;;;;;;;;;;;5.74;100.00;100060.91;5031482;28;19917;-82
2024/02/14 07:55:30;;;;;;;;;;;;;;;5.70;100.00;100062.75;5031962;28;20411;-83
2024/02/14 07:57:56;;;;;;;;;;;;;;;5.70;100.00;100059.25;5033976;28;19999;-82
2024/02/14 08:00:24;;;;;;;;;;;;;;;5.75;100.00;100058.25;5035827;28;20487;-86
2024/02/14 08:02:49;;;;;;;;;;;;;;;5.70;100.00;100052.22;5035159;28;20272;-84
2024/02/14 08:05:14;;;;;;;;;;;;;;;5.80;100.00;100056.41;5035306;28;19917;-83
2024/02/14 08:07:40;;;;;;;;;;;;;;;5.64;100.00;100053.19;5035176;28;19921;-83
2024/02/14 08:10:05;;;;;;;;;;;;;;;5.68;100.00;100050.50;5035003;28;19944;-84
2024/02/14 08:12:30;;;;;;;;;;;;;;;5.70;100.00;100057.50;5033737;28;19917;-87
2024/02/14 08:14:56;;;;;;;;;;;;;;;5.78;100.00;100059.97;5034803;28;19960;-87
2024/02/14 08:17:21;;;;;;;;;;;;;;;5.77;100.00;100064.34;5035145;28;19924;-86
2024/02/14 08:19:46;;;;;;;;;;;;;;;5.76;100.00;100067.00;5034796;28;19963;-82
2024/02/14 09:00:58;;;;;;;;;;;;;;;5.81;100.00;100058.16;5409268;23;19934;-86
2024/02/14 09:03:24;;;;;;;;;;;;;;;5.79;100.00;100057.31;4975420;28;19922;-83
2024/02/14 09:05:50;;;;;;;;;;;;;;;5.74;100.00;100060.91;4957537;28;20051;-86
2024/02/14 09:08:15;;;;;;;;;;;;;;;5.80;100.00;100068.69;4956404;28;19922;-82
2024/02/14 09:10:40;;;;;;;;;;;;;;;5.86;100.00;100068.59;4957199;28;20355;-81
2024/02/14 09:13:07;;;;;;;;;;;;;;;5.81;100.00;100075.69;4975069;28;19922;-84
2024/02/14 09:15:32;;;;;;;;;;;;;;;5.75;100.00;100075.81;4955505;28;19953;-84
2024/02/14 09:17:59;;;;;;;;;;;;;;;5.80;100.00;100071.31;4974853;28;20020;-83
2024/02/14 09:20:25;;;;;;;;;;;;;;;5.87;100.00;100080.84;4975044;28;20404;-84
2024/02/14 09:22:50;;;;;;;;;;;;;;;5.91;100.00;100081.66;4975000;28;19918;-83
2024/02/14 09:25:15;;;;;;;;;;;;;;;5.86;100.00;100084.38;4956652;28;19960;-83
2024/02/14 09:27:41;;;;;;;;;;;;;;;5.90;100.00;100080.75;4956550;28;20365;-85
2024/02/14 09:30:07;;;;;;;;;;;;;;;5.83;100.00;100089.69;4955387;28;19925;-83
2024/02/14 09:32:32;;;;;;;;;;;;;;;5.89;100.00;100089.56;4974051;28;19927;-83
2024/02/14 09:34:58;;;;;;;;;;;;;;;5.89;100.00;100092.19;4974357;28;20289;-91
2024/02/14 09:37:23;;;;;;;;;;;;;;;5.88;100.00;100089.59;4956707;28;19918;-85
2024/02/14 09:39:49;;;;;;;;;;;;;;;5.89;100.00;100097.47;4974488;28;19989;-84
2024/02/14 09:42:15;;;;;;;;;;;;;;;5.90;100.00;100090.44;4974557;28;19987;-84
2024/02/14 09:44:41;;;;;;;;;;;;;;;5.92;100.00;100094.78;4973380;28;19922;-83
2024/02/14 09:47:07;;;;;;;;;;;;;;;5.88;100.00;100090.47;4956740;28;20040;-83
2024/02/14 09:49:34;;;;;;;;;;;;;;;5.90;100.00;100103.56;4964996;28;19929;-84
2024/02/14 09:52:02;;;;;;;;;;;;;;;5.92;100.00;100104.41;4974266;28;20377;-83
2024/02/14 09:54:28;;;;;;;;;;;;;;;5.92;100.00;100105.28;4974300;28;19922;-84
2024/02/14 09:56:54;;;;;;;;;;;;;;;5.86;100.00;100104.56;4974256;28;20400;-83
2024/02/14 09:59:21;;;;;;;;;;;;;;;5.90;100.00;100107.06;4973395;28;19958;-83
2024/02/14 10:01:47;;;;;;;;;;;;;;;5.92;100.00;100110.56;4972514;28;19930;-82
2024/02/14 10:04:13;;;;;;;;;;;;;;;5.86;100.00;100115.94;4973954;28;19929;-83
2024/02/14 10:06:38;;;;;;;;;;;;;;;5.89;100.00;100115.88;4974134;28;19914;-83
2024/02/14 10:09:03;;;;;;;;;;;;;;;5.88;100.00;100114.13;4973986;28;19925;-83
2024/02/14 10:11:29;;;;;;;;;;;;;;;5.90;100.00;100125.47;4974035;28;19927;-83
2024/02/14 10:14:00;;;;;;;;;;;;;;;5.83;100.00;100121.25;4973906;28;20393;-83
2024/02/14 10:16:25;;;;;;;;;;;;;;;5.88;100.00;100118.53;4971868;28;19973;-83
2024/02/14 10:18:51;;;;;;;;;;;;;;;5.90;100.00;100128.09;4973412;28;20012;-83
2024/02/14 10:21:19;;;;;;;;;;;;;;;5.89;100.00;100130.75;4973990;28;19919;-83
2024/02/14 10:23:50;;;;;;;;;;;;;;;5.87;100.00;100133.44;4948424;28;20365;-83
2024/02/14 10:26:15;;;;;;;;;;;;;;;5.93;100.00;100127.19;4956183;28;19918;-83
2024/02/14 10:28:50;;;;;;;;;;;;;;;5.82;100.00;100115.13;4973802;28;19918;-83
2024/02/14 10:31:15;;;;;;;;;;;;;;;5.89;100.00;100123.75;4972257;28;19918;-82
2024/02/14 10:33:44;;;;;;;;;;;;;;;5.89;100.00;100131.66;4973636;28;19925;-82
2024/02/14 10:36:12;;;;;;;;;;;;;;;5.89;100.00;100129.03;4972994;28;19929;-82
2024/02/14 10:38:37;;;;;;;;;;;;;;;5.87;100.00;100133.44;4948265;28;19926;-82
2024/02/14 10:41:03;;;;;;;;;;;;;;;5.86;100.00;100133.47;4973463;28;19926;-83
2024/02/14 10:43:29;;;;;;;;;;;;;;;5.87;100.00;100143.97;4955511;28;19960;-82
2024/02/14 10:45:56;;;;;;;;;;;;;;;5.93;100.00;100140.34;4954609;28;20266;-83
2024/02/14 10:48:24;;;;;;;;;;;;;;;5.85;100.00;100143.09;4973559;28;19925;-82
2024/02/14 10:50:52;;;;;;;;;;;;;;;5.90;100.00;100137.78;4973464;28;20506;-83
2024/02/14 10:53:18;;;;;;;;;;;;;;;5.93;100.00;100133.31;4973536;28;19918;-83
2024/02/14 10:55:48;;;;;;;;;;;;;;;5.91;100.00;100121.97;4973482;28;20469;-83
2024/02/14 10:58:14;;;;;;;;;;;;;;;5.84;100.00;100122.97;4973294;28;20041;-82
2024/02/14 11:00:39;;;;;;;;;;;;;;;5.91;100.00;100121.97;4971174;28;19918;-84
2024/02/14 11:03:06;;;;;;;;;;;;;;;5.90;100.00;100128.09;4973225;28;20266;-83
2024/02/14 11:05:31;;;;;;;;;;;;;;;5.91;100.00;100131.63;4955905;28;19961;-83
2024/02/14 11:07:56;;;;;;;;;;;;;;;5.90;100.00;100128.09;4973116;28;19962;-81
2024/02/14 11:10:22;;;;;;;;;;;;;;;5.90;100.00;100122.00;4973342;28;20009;-84
2024/02/14 11:12:55;;;;;;;;;;;;;;;5.90;100.00;100116.72;4972960;28;19980;-83
2024/02/14 11:15:21;;;;;;;;;;;;;;;5.97;100.00;100127.16;4945905;28;20013;-83
2024/02/14 11:17:48;;;;;;;;;;;;;;;6.03;100.00;100117.41;4973180;28;19918;-83
2024/02/14 11:20:15;;;;;;;;;;;;;;;5.99;100.00;100117.44;4972935;28;20381;-83
2024/02/14 11:22:49;;;;;;;;;;;;;;;6.02;100.00;100113.06;4947967;28;20371;-83
2024/02/14 11:25:15;;;;;;;;;;;;;;;6.02;100.00;100118.31;4972723;28;20289;-89
2024/02/14 11:27:46;;;;;;;;;;;;;;;6.00;100.00;100118.34;4973176;28;19918;-83
2024/02/14 11:30:12;;;;;;;;;;;;;;;6.07;100.00;100114.69;4971100;28;20354;-83
2024/02/14 11:32:39;;;;;;;;;;;;;;;6.05;100.00;100121.75;4977198;28;19980;-84
2024/02/14 11:35:05;;;;;;;;;;;;;;;6.08;100.00;100115.53;4976858;28;20009;-83
2024/02/14 11:37:34;;;;;;;;;;;;;;;6.09;100.00;100122.53;4976908;28;20046;-83
2024/02/14 11:40:00;;;;;;;;;;;;;;;6.06;100.00;100122.59;4959916;28;20327;-84
2024/02/14 11:42:27;;;;;;;;;;;;;;;6.09;100.00;100115.50;4976818;28;19918;-84
2024/02/14 11:44:53;;;;;;;;;;;;;;;6.03;100.00;100118.28;4974641;28;19922;-83
2024/02/14 11:47:19;;;;;;;;;;;;;;;6.07;100.00;100111.19;4976587;28;20368;-81
2024/02/14 11:49:52;;;;;;;;;;;;;;;6.10;100.00;100109.38;4951249;28;20402;-83
2024/02/14 11:52:19;;;;;;;;;;;;;;;6.11;100.00;100108.47;4959187;28;19922;-84
2024/02/14 11:54:48;;;;;;;;;;;;;;;6.14;100.00;100115.44;4976049;28;20170;-83
2024/02/14 11:57:16;;;;;;;;;;;;;;;6.10;100.00;100106.72;4976572;28;20009;-82
2024/02/14 11:59:41;;;;;;;;;;;;;;;6.20;100.00;100093.41;4975136;28;19929;-83
2024/02/14 12:02:07;;;;;;;;;;;;;;;6.16;100.00;100092.59;4958744;28;20329;-84
2024/02/14 12:04:33;;;;;;;;;;;;;;;6.12;100.00;100091.78;4976459;28;19918;-84
2024/02/14 12:06:58;;;;;;;;;;;;;;;6.18;100.00;100085.53;4976546;28;20013;-84
2024/02/14 12:09:24;;;;;;;;;;;;;;;6.10;100.00;100093.56;4951323;28;20053;-83
2024/02/14 12:11:49;;;;;;;;;;;;;;;6.13;100.00;100092.66;4976218;28;20315;-80
2024/02/14 12:14:15;;;;;;;;;;;;;;;6.16;100.00;100079.44;4975132;28;19924;-84
2024/02/14 12:16:40;;;;;;;;;;;;;;;6.14;100.00;100084.75;4956980;28;19925;-81
2024/02/14 12:19:15;;;;;;;;;;;;;;;6.14;100.00;100078.59;4975910;28;19918;-84
2024/02/14 12:21:40;;;;;;;;;;;;;;;6.15;100.00;100080.34;4958209;28;19929;-85
2024/02/14 12:24:07;;;;;;;;;;;;;;;6.07;100.00;100085.75;4975928;28;20000;-85
2024/02/14 12:26:33;;;;;;;;;;;;;;;6.16;100.00;100079.44;4975842;28;20393;-82
2024/02/14 12:29:00;;;;;;;;;;;;;;;6.18;100.00;100077.66;4950378;28;20045;-84
2024/02/14 12:31:26;;;;;;;;;;;;;;;6.16;100.00;100066.28;4957235;28;19918;-84
2024/02/14 12:33:54;;;;;;;;;;;;;;;6.19;100.00;100066.22;4975831;28;19922;-83
2024/02/14 12:36:24;;;;;;;;;;;;;;;6.16;100.00;100068.91;4975665;28;19922;-88
2024/02/14 12:38:51;;;;;;;;;;;;;;;6.21;100.00;100071.44;4975199;28;19929;-86
2024/02/14 12:41:16;;;;;;;;;;;;;;;6.21;100.00;100084.59;4975235;28;20020;-83
2024/02/14 12:43:42;;;;;;;;;;;;;;;6.17;100.00;100068.91;4975700;28;20004;-81
2024/02/14 12:46:07;;;;;;;;;;;;;;;6.25;100.00;100059.97;4974366;28;19976;-85
2024/02/14 12:48:32;;;;;;;;;;;;;;;6.25;100.00;100060.81;4975572;28;20361;-84
2024/02/14 12:50:58;;;;;;;;;;;;;;;6.24;100.00;100056.47;4975554;28;19922;-84
2024/02/14 12:53:23;;;;;;;;;;;;;;;6.24;100.00;100053.84;4975478;28;20042;-84
2024/02/14 12:55:48;;;;;;;;;;;;;;;6.22;100.00;100063.50;4957984;28;19941;-86
2024/02/14 12:58:14;;;;;;;;;;;;;;;6.28;100.00;100060.75;4957415;28;20467;-86
2024/02/14 13:00:39;;;;;;;;;;;;;;;6.24;100.00;100060.84;4974615;28;20090;-88
2024/02/14 13:03:05;;;;;;;;;;;;;;;6.24;100.00;100063.47;4967356;28;20369;-84
2024/02/14 13:05:30;;;;;;;;;;;;;;;6.28;100.00;100060.75;4984810;28;20072;-86
2024/02/14 13:07:55;;;;;;;;;;;;;;;6.33;100.00;100063.28;4984868;28;20020;-85
2024/02/14 13:10:21;;;;;;;;;;;;;;;6.36;100.00;100066.72;4984653;28;19922;-83
2024/02/14 13:12:47;;;;;;;;;;;;;;;6.32;100.00;100067.69;4984561;28;19925;-86
2024/02/14 13:15:12;;;;;;;;;;;;;;;6.33;100.00;100055.41;4983883;28;20308;-86
2024/02/14 13:17:37;;;;;;;;;;;;;;;6.33;100.00;100051.03;4984973;28;19929;-85
2024/02/14 13:20:02;;;;;;;;;;;;;;;6.38;100.00;100047.41;4984276;28;20008;-87
2024/02/14 13:22:28;;;;;;;;;;;;;;;6.36;100.00;100048.28;4984758;28;20017;-85
2024/02/14 13:24:53;;;;;;;;;;;;;;;6.42;100.00;100047.31;4984996;28;20312;-85
2024/02/14 13:27:21;;;;;;;;;;;;;;;6.33;100.00;100043.13;4984400;28;20016;-85
2024/02/14 13:29:46;;;;;;;;;;;;;;;6.36;100.00;100036.91;4983258;28;20000;-85
2024/02/14 13:32:12;;;;;;;;;;;;;;;6.31;100.00;100039.63;4967397;28;20001;-85
2024/02/14 13:34:38;;;;;;;;;;;;;;;6.33;100.00;100037.88;4967004;28;20000;-84
2024/02/14 13:37:03;;;;;;;;;;;;;;;6.38;100.00;100035.09;4966724;28;19963;-84
2024/02/14 13:39:28;;;;;;;;;;;;;;;6.43;100.00;100032.38;4966824;28;20365;-84
2024/02/14 13:41:54;;;;;;;;;;;;;;;6.34;100.00;100041.34;4984514;28;20337;-84
2024/02/14 13:44:20;;;;;;;;;;;;;;;6.32;100.00;100037.88;4984225;28;19928;-85
2024/02/14 13:46:45;;;;;;;;;;;;;;;6.35;100.00;100038.69;4983477;28;19918;-85
2024/02/14 13:49:11;;;;;;;;;;;;;;;6.40;100.00;100035.06;4983763;28;19924;-84
2024/02/14 13:51:36;;;;;;;;;;;;;;;6.34;100.00;100039.56;4966611;28;20361;-84
2024/02/14 13:54:02;;;;;;;;;;;;;;;6.35;100.00;100043.06;4983809;28;19922;-85
2024/02/14 13:56:27;;;;;;;;;;;;;;;6.40;100.00;100045.59;4984026;28;20376;-88
2024/02/14 13:58:52;;;;;;;;;;;;;;;6.46;100.00;100048.09;4983739;28;19922;-85
2024/02/14 14:01:18;;;;;;;;;;;;;;;6.46;100.00;100048.09;4962158;28;19969;-86
2024/02/14 14:03:44;;;;;;;;;;;;;;;6.40;100.00;100050.88;4957652;28;19918;-86
2024/02/14 14:06:09;;;;;;;;;;;;;;;6.35;100.00;100036.06;4974041;28;20390;-85
2024/02/14 14:08:38;;;;;;;;;;;;;;;6.38;100.00;100039.50;4974212;28;19922;-86
2024/02/14 14:11:03;;;;;;;;;;;;;;;6.39;100.00;100043.88;4956790;28;19918;-86
2024/02/14 14:13:30;;;;;;;;;;;;;;;6.38;100.00;100035.09;4973946;28;20361;-85
2024/02/14 14:15:56;;;;;;;;;;;;;;;6.48;100.00;100036.66;4972931;28;19922;-85
2024/02/14 14:18:21;;;;;;;;;;;;;;;6.35;100.00;100029.91;4974010;28;19918;-85
2024/02/14 14:20:46;;;;;;;;;;;;;;;6.39;100.00;100017.56;4973908;28;19923;-87
2024/02/14 14:23:12;;;;;;;;;;;;;;;6.44;100.00;100031.47;4973844;28;19922;-85
2024/02/14 14:25:38;;;;;;;;;;;;;;;6.43;100.00;100032.38;4956285;28;20324;-85
2024/02/14 14:28:03;;;;;;;;;;;;;;;6.39;100.00;100033.34;4973719;28;19951;-85
2024/02/14 14:30:28;;;;;;;;;;;;;;;6.47;100.00;100023.53;4954874;28;19929;-85
2024/02/14 14:32:54;;;;;;;;;;;;;;;6.35;100.00;100028.16;4973690;28;19918;-84
2024/02/14 14:35:19;;;;;;;;;;;;;;;6.41;100.00;100045.56;4973611;28;20599;-84
2024/02/14 14:37:45;;;;;;;;;;;;;;;6.45;100.00;100031.44;4972761;28;20281;-84
2024/02/14 14:40:10;;;;;;;;;;;;;;;6.44;100.00;100042.00;4973653;28;20295;-84
2024/02/14 14:42:35;;;;;;;;;;;;;;;6.39;100.00;100031.59;4956099;28;20357;-84
2024/02/14 14:45:01;;;;;;;;;;;;;;;6.43;100.00;100037.63;4972206;28;19918;-84
2024/02/14 14:47:27;;;;;;;;;;;;;;;6.48;100.00;100030.53;4973519;28;19930;-85
2024/02/14 14:49:54;;;;;;;;;;;;;;;6.40;100.00;100032.44;4973380;28;20294;-90
2024/02/14 14:52:20;;;;;;;;;;;;;;;6.44;100.00;100034.97;4973337;28;19918;-86
2024/02/14 14:54:45;;;;;;;;;;;;;;;6.40;100.00;100041.22;4948128;28;20289;-86
2024/02/14 14:57:15;;;;;;;;;;;;;;;6.45;100.00;100039.34;4973098;28;19918;-85
2024/02/14 14:59:40;;;;;;;;;;;;;;;6.41;100.00;100045.56;4954171;28;19922;-87
2024/02/14 15:02:06;;;;;;;;;;;;;;;6.43;100.00;100046.41;4979635;28;19922;-87
2024/02/14 15:04:31;;;;;;;;;;;;;;;6.38;100.00;100040.38;4982686;28;19922;-84
2024/02/14 15:06:56;;;;;;;;;;;;;;;6.39;100.00;100044.75;4983407;28;19914;-84
2024/02/14 15:09:22;;;;;;;;;;;;;;;6.39;100.00;100042.09;4983054;28;19922;-82
2024/02/14 15:11:47;;;;;;;;;;;;;;;6.39;100.00;100049.16;4965257;28;19925;-85
2024/02/14 15:14:12;;;;;;;;;;;;;;;6.39;100.00;100051.78;4949180;28;19925;-86
2024/02/14 15:16:37;;;;;;;;;;;;;;;6.45;100.00;100051.66;4981985;28;19917;-86
2024/02/14 15:19:03;;;;;;;;;;;;;;;6.48;100.00;100049.81;4982016;28;19945;-87
2024/02/14 15:21:28;;;;;;;;;;;;;;;6.49;100.00;100048.94;4981624;28;20013;-86
2024/02/14 15:23:53;;;;;;;;;;;;;;;6.49;100.00;100048.94;4982607;28;20031;-90
2024/02/14 15:26:19;;;;;;;;;;;;;;;6.54;100.00;100051.44;4982396;28;19919;-84
2024/02/14 15:28:45;;;;;;;;;;;;;;;8.06;100.00;100049.41;4982693;28;19922;-91
2024/02/14 15:33:55;;;;;;;;;;;;;;;7.15;100.00;100053.53;4982253;28;20431;-89
2024/02/14 15:36:21;;;;;;;;;;;;;;;6.99;100.00;100051.28;4983092;28;19918;-91
2024/02/14 15:38:46;;;;;;;;;;;;;;;6.85;100.00;100050.75;4964385;28;19925;-87
2024/02/14 15:41:14;;;;;;;;;;;;;;;6.85;100.00;100050.75;4983082;28;19922;-88
2024/02/14 15:43:43;;;;;;;;;;;;;;;6.83;100.00;100053.41;4983027;28;19980;-86
2024/02/14 15:46:17;;;;;;;;;;;;;;;6.77;100.00;100047.44;4981170;28;19944;-90
2024/02/14 15:48:43;;;;;;;;;;;;;;;6.72;100.00;100042.28;4964112;28;20365;-90
2024/02/14 15:51:08;;;;;;;;;;;;;;;6.71;100.00;100044.00;4982432;28;20337;-90
2024/02/14 15:53:34;;;;;;;;;;;;;;;6.65;100.00;100038.91;4964516;28;19964;-89
2024/02/14 15:56:07;;;;;;;;;;;;;;;6.65;100.00;100038.91;4965491;28;19992;-91
2024/02/14 15:58:32;;;;;;;;;;;;;;;6.74;100.00;100045.72;4963909;28;19926;-90
2024/02/14 16:00:58;;;;;;;;;;;;;;;6.69;100.00;100042.34;4963596;28;19922;-88
2024/02/14 16:03:28;;;;;;;;;;;;;;;6.72;100.00;100037.84;4982009;28;20385;-88
2024/02/14 16:06:13;;;;;;;;;;;;;;;6.76;100.00;100040.44;4964237;28;20282;-91
2024/02/14 16:08:41;;;;;;;;;;;;;;;6.67;100.00;100045.00;4965290;28;20388;-90
2024/02/14 16:11:06;;;;;;;;;;;;;;;6.64;100.00;100046.84;4982186;28;19918;-88
2024/02/14 16:13:35;;;;;;;;;;;;;;;6.63;100.00;100038.06;4982692;28;19918;-89
2024/02/14 16:16:00;;;;;;;;;;;;;;;6.67;100.00;100039.75;4981094;28;20436;-88
2024/02/14 16:18:25;;;;;;;;;;;;;;;6.67;100.00;100046.75;4985288;28;20016;-87
2024/02/14 16:20:51;;;;;;;;;;;;;;;6.68;100.00;100040.59;4968558;28;19925;-87
2024/02/14 16:23:16;;;;;;;;;;;;;;;6.63;100.00;100037.22;4985759;28;19964;-87
2024/02/14 16:25:41;;;;;;;;;;;;;;;6.57;100.00;100032.06;4985485;28;19918;-86
2024/02/14 16:28:07;;;;;;;;;;;;;;;6.71;100.00;100036.13;4985590;28;20009;-88
2024/02/14 16:30:32;;;;;;;;;;;;;;;6.67;100.00;100031.84;4984559;28;19917;-87
2024/02/14 16:32:58;;;;;;;;;;;;;;;6.67;100.00;100026.56;4985751;28;20288;-86
2024/02/14 16:35:24;;;;;;;;;;;;;;;6.68;100.00;100038.81;4984524;28;19951;-88
2024/02/14 16:37:49;;;;;;;;;;;;;;;6.70;100.00;100037.03;4967865;28;19922;-87
2024/02/14 16:40:17;;;;;;;;;;;;;;;6.65;100.00;100031.03;4985812;28;19918;-87
2024/02/14 16:42:47;;;;;;;;;;;;;;;6.68;100.00;100033.56;4985459;28;19919;-86
2024/02/14 16:48:01;;;;;;;;;;;;;;;6.71;100.00;100040.53;4985432;28;19918;-90
2024/02/14 16:50:28;;;;;;;;;;;;;;;6.73;100.00;100039.59;4984860;28;19925;-87
2024/02/14 16:52:54;;;;;;;;;;;;;;;6.71;100.00;100044.00;4985325;28;19918;-87
2024/02/14 16:55:22;;;;;;;;;;;;;;;6.69;100.00;100042.34;4985413;28;19936;-91
2024/02/14 16:57:47;;;;;;;;;;;;;;;6.81;100.00;100054.34;4966893;28;20332;-87
2024/02/14 17:00:13;;;;;;;;;;;;;;;6.69;100.00;100051.09;4985975;28;19918;-89
2024/02/14 17:02:39;;;;;;;;;;;;;;;6.72;100.00;100051.03;4977065;28;19961;-87
2024/02/14 17:05:05;;;;;;;;;;;;;;;6.69;100.00;100055.50;4975266;28;19929;-90
2024/02/14 17:07:30;;;;;;;;;;;;;;;6.72;100.00;100053.66;4975214;28;19914;-87
2024/02/14 17:09:59;;;;;;;;;;;;;;;6.77;100.00;100058.81;4974394;28;20335;-87
2024/02/14 17:12:27;;;;;;;;;;;;;;;6.77;100.00;100058.81;4974926;28;19914;-87
2024/02/14 17:14:56;;;;;;;;;;;;;;;6.79;100.00;100064.06;4948349;28;19926;-87
2024/02/14 17:17:22;;;;;;;;;;;;;;;6.78;100.00;100062.31;4957441;28;20337;-87